Puropanmaru No.3 — JD3322 — position and weather

sailwx.info

Track history (hours):
 
Tides and Currents Weather Stations Pressure Air Temp Water Temp Dewpoint Dewpoint Depression Visibility Wind Speed Wind Dir Waves Ship Positions

Puropanmaru No.3

Last reported at 2016-Feb-11 08:22 UTC. Time now 2016-Feb-11 08:48 UTC.
Position N 35°32' E 140°03'.

Length 68 m; draft 4.5 m.

Type: Tanker. MMSI: 431003365.

Date/timePositionNaut miles runAvg speedWind from/ knotsBaromVisibWave heightAir tempDewpointWater temp
2016-Feb-11 08:22N 35°32' E 140°03'0 0.0
2016-Feb-11 07:28N 35°32' E 140°03'0 0.0
2016-Feb-11 06:28N 35°32' E 140°03'0 0.3
2016-Feb-11 05:33N 35°32' E 140°03'2 2.0
2016-Feb-11 04:33N 35°33' E 140°05'0 0.0
2016-Feb-11 03:27N 35°33' E 140°05'0 0.0
2016-Feb-11 02:15N 35°33' E 140°05'0 0.0
2016-Feb-11 01:33N 35°33' E 140°05'0 0.0
2016-Feb-11 00:27N 35°33' E 140°05'0 0.0
2016-Feb-10 23:21N 35°33' E 140°05'0 0.0
2016-Feb-10 22:33N 35°33' E 140°05'0 0.0
2016-Feb-10 21:33N 35°33' E 140°05'0 0.0
2016-Feb-10 20:27N 35°33' E 140°05'0 0.0
2016-Feb-10 19:33N 35°33' E 140°05'0 0.0
2016-Feb-10 18:33N 35°33' E 140°05'0 0.0
2016-Feb-10 17:33N 35°33' E 140°05'0 0.0
2016-Feb-10 16:33N 35°33' E 140°05'0 0.0
2016-Feb-10 15:27N 35°33' E 140°05'0 0.0
2016-Feb-10 14:33N 35°33' E 140°05'0 0.0
2016-Feb-10 13:27N 35°33' E 140°05'0 0.0
2016-Feb-10 12:27N 35°33' E 140°05'0 0.0
2016-Feb-10 11:33N 35°33' E 140°05'0 0.0
2016-Feb-10 10:33N 35°33' E 140°05'0 0.0
2016-Feb-10 09:33N 35°33' E 140°05'0 0.0
2016-Feb-10 08:33N 35°33' E 140°05'0 0.0
2016-Feb-10 07:27N 35°33' E 140°05'0 0.1
2016-Feb-10 06:33N 35°33' E 140°05'0 0.0
2016-Feb-10 05:15N 35°33' E 140°05'0 0.0
2016-Feb-10 04:27N 35°33' E 140°05'0 0.0
2016-Feb-10 03:33N 35°33' E 140°05'0 0.0
2016-Feb-10 02:27N 35°33' E 140°05'0 0.0
2016-Feb-10 01:15N 35°33' E 140°05'0 0.0
2016-Feb-10 00:27N 35°33' E 140°05'0 0.0
2016-Feb-09 23:33N 35°33' E 140°05'0 0.0
2016-Feb-09 22:30N 35°33' E 140°05'0 0.0
2016-Feb-09 21:32N 35°33' E 140°05'0 0.0
2016-Feb-09 20:33N 35°33' E 140°05'0 0.0
2016-Feb-09 19:27N 35°33' E 140°05'0 0.0
2016-Feb-09 18:33N 35°33' E 140°05'0 0.0
2016-Feb-09 17:27N 35°33' E 140°05'0 0.0
2016-Feb-09 16:32N 35°33' E 140°05'0 0.0
2016-Feb-09 15:26N 35°33' E 140°05'0 0.0
2016-Feb-09 14:33N 35°33' E 140°05'0 0.0
2016-Feb-09 13:33N 35°33' E 140°05'0 0.0
2016-Feb-09 11:27N 35°33' E 140°05'0 0.0
2016-Feb-09 10:14N 35°33' E 140°05'0 0.0
2016-Feb-09 09:33N 35°33' E 140°05'0 0.0
2016-Feb-09 08:32N 35°33' E 140°05'0 0.0
2016-Feb-09 07:26N 35°33' E 140°05'0 0.0
2016-Feb-09 06:32N 35°33' E 140°05'0 0.0
2016-Feb-09 05:32N 35°33' E 140°05'0 0.0
2016-Feb-09 04:32N 35°33' E 140°05'0 0.0
2016-Feb-09 03:32N 35°33' E 140°05'0 0.0
2016-Feb-09 02:32N 35°33' E 140°05'0 0.0
2016-Feb-09 01:32N 35°33' E 140°05'0 0.0
2016-Feb-09 00:29N 35°33' E 140°05'0 0.1
2016-Feb-08 23:32N 35°33' E 140°05'0 0.0
2016-Feb-08 22:32N 35°33' E 140°05'0 0.0
2016-Feb-08 21:14N 35°33' E 140°05'0 0.0
2016-Feb-08 20:20N 35°33' E 140°05'0 0.0
2016-Feb-08 19:32N 35°33' E 140°05'0 0.0
2016-Feb-08 18:20N 35°33' E 140°05'0 0.0
2016-Feb-08 17:26N 35°33' E 140°05'0 0.1
2016-Feb-08 16:26N 35°33' E 140°05'2 2.3
2016-Feb-08 15:34N 35°34' E 140°03'1313.1
2016-Feb-08 14:34N 35°27' E 139°49'1111.2
2016-Feb-08 13:33N 35°15' E 139°47'1912.8
2016-Feb-08 12:04N 34°57' E 139°44'1610.0
2016-Feb-08 10:32N 34°57' E 140°03'6810.7
2016-Feb-08 04:06N 35°57' E 140°42'3 0.8
2016-Feb-07 23:29N 35°54' E 140°41'6 4.9
2016-Feb-07 22:20N 35°59' E 140°43'0 0.0
2016-Feb-07 21:34N 35°59' E 140°43'0 0.0
2016-Feb-07 20:33N 35°59' E 140°43'0 0.0
2016-Feb-07 19:33N 35°59' E 140°43'0 0.0
2016-Feb-07 18:31N 35°59' E 140°43'0 0.0
2016-Feb-07 17:33N 35°59' E 140°43'0 0.0
2016-Feb-07 16:29N 35°59' E 140°43'0 0.0
2016-Feb-07 15:27N 35°59' E 140°43'2311.0
2016-Feb-07 13:23N 35°38' E 140°51'1112.9
2016-Feb-07 12:30N 35°29' E 140°43'1512.7
2016-Feb-07 11:17N 35°16' E 140°31'2212.6
2016-Feb-07 09:31N 35°01' E 140°12'23 7.6
2016-Feb-07 06:33N 35°08' E 139°46'1212.4
2016-Feb-07 05:33N 35°21' E 139°42'1211.9
2016-Feb-07 04:34N 35°30' E 139°52'10 9.7
2016-Feb-07 03:34N 35°32' E 140°03'0 0.0
2016-Feb-07 02:33N 35°32' E 140°03'0 0.0
2016-Feb-07 01:33N 35°32' E 140°03'0 0.0
2016-Feb-07 00:33N 35°32' E 140°03'0 0.0
2016-Feb-06 23:28N 35°32' E 140°03'2 2.0
2016-Feb-06 22:33N 35°32' E 140°01'6 5.4
2016-Feb-06 21:32N 35°29' E 139°56'0 0.0
2016-Feb-06 20:32N 35°29' E 139°56'0 0.1
2016-Feb-06 19:33N 35°29' E 139°56'1110.9
2016-Feb-06 18:33N 35°22' E 139°45'1211.9
2016-Feb-06 17:33N 35°10' E 139°46'1312.0
2016-Feb-06 16:28N 34°57' E 139°44'2211.3
2016-Feb-06 14:32N 35°00' E 140°10'50 2.0
2016-Feb-05 13:28N 35°37' E 140°51'1313.2
2016-Feb-05 12:28N 35°27' E 140°41'1413.3
2016-Feb-05 11:23N 35°15' E 140°30'2513.5
2016-Feb-05 09:31N 34°58' E 140°07'19 9.1
2016-Feb-05 07:23N 35°03' E 139°44'1113.3
2016-Feb-05 06:32N 35°14' E 139°46'1111.6
2016-Feb-05 05:33N 35°26' E 139°45'5 5.4
2016-Feb-05 04:33N 35°31' E 139°46'0 0.0
2016-Feb-05 03:33N 35°31' E 139°46'0 0.0
2016-Feb-05 02:33N 35°31' E 139°46'0 0.0
2016-Feb-05 01:30N 35°31' E 139°46'2 2.1
2016-Feb-05 00:33N 35°30' E 139°48'2 2.2
2016-Feb-04 23:33N 35°29' E 139°46'0 0.0
2016-Feb-04 22:33N 35°29' E 139°46'0 0.0
2016-Feb-04 21:33N 35°29' E 139°46'0 0.0
2016-Feb-04 20:33N 35°29' E 139°46'0 0.0
2016-Feb-04 19:33N 35°29' E 139°46'0 0.1
2016-Feb-04 18:33N 35°29' E 139°46'0 0.0
2016-Feb-04 17:33N 35°29' E 139°46'0 0.0
2016-Feb-04 16:33N 35°29' E 139°46'0 0.0
2016-Feb-04 15:33N 35°29' E 139°46'0 0.0
2016-Feb-04 14:33N 35°29' E 139°46'0 0.1
2016-Feb-04 13:33N 35°29' E 139°46'0 0.0
2016-Feb-04 12:33N 35°29' E 139°46'0 0.0
2016-Feb-04 11:33N 35°29' E 139°46'0 0.1
2016-Feb-04 10:33N 35°29' E 139°46'0 0.0
2016-Feb-04 09:34N 35°29' E 139°46'1111.0
2016-Feb-04 08:33N 35°18' E 139°45'236 5.2
2016-Feb-02 11:29N 34°37' E 135°01'1112.2
2016-Feb-02 10:33N 34°34' E 135°14'10 1.9
2016-Feb-02 05:20N 34°33' E 135°26'6 7.7
2016-Feb-02 04:33N 34°33' E 135°19'1313.1
2016-Feb-02 03:33N 34°36' E 135°03'  
Track history (hours):
 
Tides and Currents Weather Stations Pressure Air Temp Water Temp Dewpoint Dewpoint Depression Visibility Wind Speed Wind Dir Waves Ship Positions

Puropanmaru No.3

Last reported at 2016-Feb-11 08:22 UTC. Time now 2016-Feb-11 08:48 UTC.
Position N 35°32' E 140°03'.

Length 68 m; draft 4.5 m.

Type: Tanker. MMSI: 431003365.

Date/timePositionNaut miles runAvg speedWind from/ knotsBaromVisibWave heightAir tempDewpointWater temp
2016-Feb-11 08:22N 35°32' E 140°03'0 0.0
2016-Feb-11 07:28N 35°32' E 140°03'0 0.0
2016-Feb-11 06:28N 35°32' E 140°03'0 0.3
2016-Feb-11 05:33N 35°32' E 140°03'2 2.0
2016-Feb-11 04:33N 35°33' E 140°05'0 0.0
2016-Feb-11 03:27N 35°33' E 140°05'0 0.0
2016-Feb-11 02:15N 35°33' E 140°05'0 0.0
2016-Feb-11 01:33N 35°33' E 140°05'0 0.0
2016-Feb-11 00:27N 35°33' E 140°05'0 0.0
2016-Feb-10 23:21N 35°33' E 140°05'0 0.0
2016-Feb-10 22:33N 35°33' E 140°05'0 0.0
2016-Feb-10 21:33N 35°33' E 140°05'0 0.0
2016-Feb-10 20:27N 35°33' E 140°05'0 0.0
2016-Feb-10 19:33N 35°33' E 140°05'0 0.0
2016-Feb-10 18:33N 35°33' E 140°05'0 0.0
2016-Feb-10 17:33N 35°33' E 140°05'0 0.0
2016-Feb-10 16:33N 35°33' E 140°05'0 0.0
2016-Feb-10 15:27N 35°33' E 140°05'0 0.0
2016-Feb-10 14:33N 35°33' E 140°05'0 0.0
2016-Feb-10 13:27N 35°33' E 140°05'0 0.0
2016-Feb-10 12:27N 35°33' E 140°05'0 0.0
2016-Feb-10 11:33N 35°33' E 140°05'0 0.0
2016-Feb-10 10:33N 35°33' E 140°05'0 0.0
2016-Feb-10 09:33N 35°33' E 140°05'0 0.0
2016-Feb-10 08:33N 35°33' E 140°05'0 0.0
2016-Feb-10 07:27N 35°33' E 140°05'0 0.1
2016-Feb-10 06:33N 35°33' E 140°05'0 0.0
2016-Feb-10 05:15N 35°33' E 140°05'0 0.0
2016-Feb-10 04:27N 35°33' E 140°05'0 0.0
2016-Feb-10 03:33N 35°33' E 140°05'0 0.0
2016-Feb-10 02:27N 35°33' E 140°05'0 0.0
2016-Feb-10 01:15N 35°33' E 140°05'0 0.0
2016-Feb-10 00:27N 35°33' E 140°05'0 0.0
2016-Feb-09 23:33N 35°33' E 140°05'0 0.0
2016-Feb-09 22:30N 35°33' E 140°05'0 0.0
2016-Feb-09 21:32N 35°33' E 140°05'0 0.0
2016-Feb-09 20:33N 35°33' E 140°05'0 0.0
2016-Feb-09 19:27N 35°33' E 140°05'0 0.0
2016-Feb-09 18:33N 35°33' E 140°05'0 0.0
2016-Feb-09 17:27N 35°33' E 140°05'0 0.0
2016-Feb-09 16:32N 35°33' E 140°05'0 0.0
2016-Feb-09 15:26N 35°33' E 140°05'0 0.0
2016-Feb-09 14:33N 35°33' E 140°05'0 0.0
2016-Feb-09 13:33N 35°33' E 140°05'0 0.0
2016-Feb-09 11:27N 35°33' E 140°05'0 0.0
2016-Feb-09 10:14N 35°33' E 140°05'0 0.0
2016-Feb-09 09:33N 35°33' E 140°05'0 0.0
2016-Feb-09 08:32N 35°33' E 140°05'0 0.0
2016-Feb-09 07:26N 35°33' E 140°05'0 0.0
2016-Feb-09 06:32N 35°33' E 140°05'0 0.0
2016-Feb-09 05:32N 35°33' E 140°05'0 0.0
2016-Feb-09 04:32N 35°33' E 140°05'0 0.0
2016-Feb-09 03:32N 35°33' E 140°05'0 0.0
2016-Feb-09 02:32N 35°33' E 140°05'0 0.0
2016-Feb-09 01:32N 35°33' E 140°05'0 0.0
2016-Feb-09 00:29N 35°33' E 140°05'0 0.1
2016-Feb-08 23:32N 35°33' E 140°05'0 0.0
2016-Feb-08 22:32N 35°33' E 140°05'0 0.0
2016-Feb-08 21:14N 35°33' E 140°05'0 0.0
2016-Feb-08 20:20N 35°33' E 140°05'0 0.0
2016-Feb-08 19:32N 35°33' E 140°05'0 0.0
2016-Feb-08 18:20N 35°33' E 140°05'0 0.0
2016-Feb-08 17:26N 35°33' E 140°05'0 0.1
2016-Feb-08 16:26N 35°33' E 140°05'2 2.3
2016-Feb-08 15:34N 35°34' E 140°03'1313.1
2016-Feb-08 14:34N 35°27' E 139°49'1111.2
2016-Feb-08 13:33N 35°15' E 139°47'1912.8
2016-Feb-08 12:04N 34°57' E 139°44'1610.0
2016-Feb-08 10:32N 34°57' E 140°03'6810.7
2016-Feb-08 04:06N 35°57' E 140°42'3 0.8
2016-Feb-07 23:29N 35°54' E 140°41'6 4.9
2016-Feb-07 22:20N 35°59' E 140°43'0 0.0
2016-Feb-07 21:34N 35°59' E 140°43'0 0.0
2016-Feb-07 20:33N 35°59' E 140°43'0 0.0
2016-Feb-07 19:33N 35°59' E 140°43'0 0.0
2016-Feb-07 18:31N 35°59' E 140°43'0 0.0
2016-Feb-07 17:33N 35°59' E 140°43'0 0.0
2016-Feb-07 16:29N 35°59' E 140°43'0 0.0
2016-Feb-07 15:27N 35°59' E 140°43'2311.0
2016-Feb-07 13:23N 35°38' E 140°51'1112.9
2016-Feb-07 12:30N 35°29' E 140°43'1512.7
2016-Feb-07 11:17N 35°16' E 140°31'2212.6
2016-Feb-07 09:31N 35°01' E 140°12'23 7.6
2016-Feb-07 06:33N 35°08' E 139°46'1212.4
2016-Feb-07 05:33N 35°21' E 139°42'1211.9
2016-Feb-07 04:34N 35°30' E 139°52'10 9.7
2016-Feb-07 03:34N 35°32' E 140°03'0 0.0
2016-Feb-07 02:33N 35°32' E 140°03'0 0.0
2016-Feb-07 01:33N 35°32' E 140°03'0 0.0
2016-Feb-07 00:33N 35°32' E 140°03'0 0.0
2016-Feb-06 23:28N 35°32' E 140°03'2 2.0
2016-Feb-06 22:33N 35°32' E 140°01'6 5.4
2016-Feb-06 21:32N 35°29' E 139°56'0 0.0
2016-Feb-06 20:32N 35°29' E 139°56'0 0.1
2016-Feb-06 19:33N 35°29' E 139°56'1110.9
2016-Feb-06 18:33N 35°22' E 139°45'1211.9
2016-Feb-06 17:33N 35°10' E 139°46'1312.0
2016-Feb-06 16:28N 34°57' E 139°44'2211.3
2016-Feb-06 14:32N 35°00' E 140°10'50 2.0
2016-Feb-05 13:28N 35°37' E 140°51'1313.2
2016-Feb-05 12:28N 35°27' E 140°41'1413.3
2016-Feb-05 11:23N 35°15' E 140°30'2513.5
2016-Feb-05 09:31N 34°58' E 140°07'19 9.1
2016-Feb-05 07:23N 35°03' E 139°44'1113.3
2016-Feb-05 06:32N 35°14' E 139°46'1111.6
2016-Feb-05 05:33N 35°26' E 139°45'5 5.4
2016-Feb-05 04:33N 35°31' E 139°46'0 0.0
2016-Feb-05 03:33N 35°31' E 139°46'0 0.0
2016-Feb-05 02:33N 35°31' E 139°46'0 0.0
2016-Feb-05 01:30N 35°31' E 139°46'2 2.1
2016-Feb-05 00:33N 35°30' E 139°48'2 2.2
2016-Feb-04 23:33N 35°29' E 139°46'0 0.0
2016-Feb-04 22:33N 35°29' E 139°46'0 0.0
2016-Feb-04 21:33N 35°29' E 139°46'0 0.0
2016-Feb-04 20:33N 35°29' E 139°46'0 0.0
2016-Feb-04 19:33N 35°29' E 139°46'0 0.1
2016-Feb-04 18:33N 35°29' E 139°46'0 0.0
2016-Feb-04 17:33N 35°29' E 139°46'0 0.0
2016-Feb-04 16:33N 35°29' E 139°46'0 0.0
2016-Feb-04 15:33N 35°29' E 139°46'0 0.0
2016-Feb-04 14:33N 35°29' E 139°46'0 0.1
2016-Feb-04 13:33N 35°29' E 139°46'0 0.0
2016-Feb-04 12:33N 35°29' E 139°46'0 0.0
2016-Feb-04 11:33N 35°29' E 139°46'0 0.1
2016-Feb-04 10:33N 35°29' E 139°46'0 0.0
2016-Feb-04 09:34N 35°29' E 139°46'1111.0
2016-Feb-04 08:33N 35°18' E 139°45'236 5.2
2016-Feb-02 11:29N 34°37' E 135°01'1112.2
2016-Feb-02 10:33N 34°34' E 135°14'10 1.9
2016-Feb-02 05:20N 34°33' E 135°26'6 7.7
2016-Feb-02 04:33N 34°33' E 135°19'1313.1
2016-Feb-02 03:33N 34°36' E 135°03'  

Dump ship's entire track history